Airfield :







YOU CAN JOIN US ON...

 
LOGIN :

Register | Disclaimer

   EN    FR    IT 

 









Legend :    VFR   Marginal VFR   IFR   Intensive IFR   Very Intensive IFR
Visi :
Ceiling :
>= 8 km
>= 3000ft
5 to 8 km
1000 to 3000 ft
1500m to 5 km
500 to 1000 ft
800 to 1500m
200 to 500 ft
< 800m
< 200 ft
Symbols :   Thunderstorms  Fog  Heavy snow  Heavy precipitations  Wind > 20 kt






- Airport Elevation : 35 ft
- IATA code : YGR


CYGR - ëles-de-la-Madeleine

CURRENT METAR :
  • 132200Z 31009KT 15SM FEW270 09/07 A2995 RMK CI1 SLP143

EXPIRED METARs :
  • 132100Z 31011KT 20SM FEW270 10/07 A2994 RMK CI1 SLP139
  • 132000Z 31012KT 20SM FEW270 10/07 A2991 RMK CI1 CI TR SLP130

TAF TAF CYGR
Valid from the 13 at 20:00 until the 14 at 02:00 UTC


131944Z 1320/1402 31010KT P6SM SKC RMK NXT FCST WILL BE ISSUED AT 141045Z



MET'MAP, your aeronautical weather chart ! - Copyright ORBIFLY December 2007 - Disclaimer

ORBIFLY MET'MAP TEAM :

Programming & Development : Alexandra Zaïnal
Concept & Development : Baudouin d'Aumeries
Co-Development & Prog : Marc-Olivier Méhu
Technical & hardware support : Manuel Goepfert

Contact : metmap@orbifly.com




SOURCES & CREDITS :

   NOAA